createdAt,value
2022-09-26T00:01:35.398Z,6.97
2022-09-26T00:04:06.960Z,7.00
2022-09-26T00:06:34.196Z,6.82
2022-09-26T00:09:01.375Z,7.25
2022-09-26T00:11:32.758Z,7.28
2022-09-26T00:14:03.412Z,7.53
2022-09-26T00:16:30.799Z,7.57
2022-09-26T00:19:01.604Z,7.38
2022-09-26T00:21:30.458Z,6.97
2022-09-26T00:23:59.195Z,7.10
2022-09-26T00:26:28.185Z,7.32
2022-09-26T00:28:56.058Z,6.88
2022-09-26T00:31:26.963Z,6.50
2022-09-26T00:33:54.948Z,7.18
2022-09-26T00:36:29.706Z,6.80
2022-09-26T00:39:04.666Z,7.43
2022-09-26T00:41:32.121Z,7.72
2022-09-26T00:43:59.080Z,7.28
2022-09-26T00:46:35.492Z,7.10
2022-09-26T00:49:26.679Z,6.78
2022-09-26T00:52:08.953Z,7.20
2022-09-26T00:54:38.411Z,6.82
2022-09-26T00:57:11.444Z,6.75
2022-09-26T00:59:46.768Z,7.15
2022-09-26T01:02:15.668Z,6.82
2022-09-26T01:04:46.282Z,7.15
2022-09-26T01:07:21.442Z,6.70
2022-09-26T01:09:49.192Z,6.80
2022-09-26T01:12:17.993Z,6.47
2022-09-26T01:14:47.617Z,6.68
2022-09-26T01:17:16.028Z,7.20
2022-09-26T01:19:54.898Z,6.95
2022-09-26T01:22:59.521Z,7.28
2022-09-26T01:25:32.498Z,7.20
2022-09-26T01:28:27.157Z,7.13
2022-09-26T01:31:22.073Z,7.77
2022-09-26T01:33:53.140Z,6.63
2022-09-26T01:36:38.763Z,7.07
2022-09-26T01:39:34.067Z,6.55
2022-09-26T01:42:30.725Z,6.32
2022-09-26T01:45:07.484Z,5.82
2022-09-26T01:47:44.121Z,6.30
2022-09-26T01:50:21.630Z,5.78
2022-09-26T01:53:06.405Z,5.43
2022-09-26T01:55:45.337Z,5.10
2022-09-26T01:58:28.464Z,5.43
2022-09-26T02:01:00.861Z,5.28
2022-09-26T02:03:32.725Z,4.68
2022-09-26T02:06:09.720Z,4.70
2022-09-26T02:08:42.663Z,4.68
2022-09-26T02:11:17.235Z,5.07
2022-09-26T02:13:56.082Z,5.20
2022-09-26T02:16:49.489Z,5.22
2022-09-26T02:19:52.360Z,3.70
2022-09-26T02:22:20.116Z,2.90
2022-09-26T02:24:47.308Z,2.58
2022-09-26T02:27:14.585Z,2.67
2022-09-26T02:29:43.400Z,2.28
2022-09-26T02:32:25.405Z,2.38
2022-09-26T02:34:53.170Z,2.50
2022-09-26T02:37:21.813Z,2.50
2022-09-26T02:39:52.460Z,2.20
2022-09-26T02:42:58.194Z,2.10
2022-09-26T02:45:33.396Z,2.45
2022-09-26T02:48:22.843Z,2.00
2022-09-26T02:51:01.147Z,2.75
2022-09-26T02:54:13.899Z,2.25
2022-09-26T02:57:08.259Z,2.33
2022-09-26T03:00:23.360Z,2.13
2022-09-26T03:03:06.571Z,1.60
2022-09-26T03:05:40.482Z,1.40
2022-09-26T03:08:26.537Z,1.13
2022-09-26T03:10:56.489Z,1.23
2022-09-26T03:13:26.973Z,1.00
2022-09-26T03:15:58.880Z,1.02
2022-09-26T03:18:37.225Z,0.98
2022-09-26T03:21:04.981Z,1.00
2022-09-26T03:23:32.359Z,1.10
2022-09-26T03:26:16.183Z,1.10
2022-09-26T03:29:09.281Z,0.80
2022-09-26T03:31:36.983Z,1.10
2022-09-26T03:34:06.504Z,1.80
2022-09-26T03:36:33.943Z,2.22
2022-09-26T03:39:03.664Z,2.20
2022-09-26T03:42:00.473Z,2.00
2022-09-26T03:44:29.769Z,1.90
2022-09-26T03:47:05.645Z,1.63
2022-09-26T03:49:39.021Z,1.48
2022-09-26T03:52:10.730Z,1.17
2022-09-26T03:54:38.489Z,1.60
2022-09-26T03:57:05.588Z,1.05
2022-09-26T03:59:36.323Z,1.00
2022-09-26T04:02:03.839Z,1.25
2022-09-26T04:04:32.324Z,1.30
2022-09-26T04:07:00.370Z,1.38
2022-09-26T04:09:28.108Z,1.27
2022-09-26T04:11:55.377Z,1.20
2022-09-26T04:14:22.694Z,1.17
2022-09-26T04:16:55.543Z,1.23
2022-09-26T04:22:11.267Z,1.38
2022-09-26T04:24:38.552Z,1.20
2022-09-26T04:27:08.605Z,1.10
2022-09-26T04:29:36.739Z,1.30
2022-09-26T04:32:26.517Z,1.38
2022-09-26T04:35:24.477Z,1.30
2022-09-26T04:37:51.860Z,1.30
2022-09-26T04:40:19.751Z,1.52
2022-09-26T04:43:00.039Z,1.50
2022-09-26T04:45:27.219Z,1.30
2022-09-26T04:47:54.326Z,1.40
2022-09-26T04:50:27.667Z,1.50
2022-09-26T04:53:09.609Z,1.23
2022-09-26T04:55:45.267Z,1.92
2022-09-26T04:58:15.526Z,2.08
2022-09-26T05:00:50.043Z,3.30
2022-09-26T05:03:32.221Z,3.17
2022-09-26T05:06:01.177Z,3.03
2022-09-26T05:08:28.288Z,3.25
2022-09-26T05:10:58.719Z,2.83
2022-09-26T05:13:26.870Z,2.20
2022-09-26T05:15:58.991Z,2.10
2022-09-26T05:18:28.324Z,2.00
2022-09-26T05:20:57.548Z,1.92
2022-09-26T05:23:45.689Z,1.95
2022-09-26T05:26:19.951Z,2.15
2022-09-26T05:28:53.089Z,2.40
2022-09-26T05:31:26.488Z,2.67
2022-09-26T05:33:54.053Z,2.92
2022-09-26T05:36:21.324Z,4.13
2022-09-26T05:38:48.244Z,4.70
2022-09-26T05:41:17.331Z,5.00
2022-09-26T05:43:44.326Z,4.47
2022-09-26T05:46:13.998Z,3.25
2022-09-26T05:48:47.384Z,3.08
2022-09-26T05:51:21.242Z,2.40
2022-09-26T05:53:50.395Z,2.40
2022-09-26T05:56:20.683Z,2.42
2022-09-26T05:59:08.061Z,3.38
2022-09-26T06:01:35.954Z,4.60
2022-09-26T06:04:15.517Z,4.28
2022-09-26T06:09:28.881Z,3.42
2022-09-26T06:12:19.233Z,3.10
2022-09-26T06:14:47.102Z,2.83
2022-09-26T06:17:15.232Z,2.63
2022-09-26T06:19:44.780Z,2.20
2022-09-26T06:22:12.117Z,2.38
2022-09-26T06:24:39.314Z,2.85
2022-09-26T06:27:11.448Z,2.13
2022-09-26T06:29:39.374Z,2.78
2022-09-26T06:32:06.427Z,2.60
2022-09-26T06:34:52.026Z,2.72
2022-09-26T06:37:41.252Z,2.85
2022-09-26T06:40:09.811Z,3.22
2022-09-26T06:42:38.132Z,3.20
2022-09-26T06:45:18.682Z,3.20
2022-09-26T06:48:04.593Z,3.40
2022-09-26T06:50:40.934Z,4.22
2022-09-26T06:53:08.121Z,4.68
2022-09-26T06:55:35.281Z,5.18
2022-09-26T06:58:04.400Z,5.07
2022-09-26T07:00:47.414Z,4.82
2022-09-26T07:03:40.485Z,3.78
2022-09-26T07:06:34.322Z,3.78
2022-09-26T07:09:05.497Z,4.10
2022-09-26T07:12:12.512Z,3.90
2022-09-26T07:14:31.142Z,4.05
2022-09-26T07:17:04.819Z,4.85
2022-09-26T07:19:53.452Z,4.65
2022-09-26T07:22:53.545Z,4.05
2022-09-26T07:25:20.993Z,3.55
2022-09-26T07:27:52.225Z,4.30
2022-09-26T07:30:23.642Z,4.40
2022-09-26T07:33:03.849Z,4.10
2022-09-26T07:35:39.024Z,4.35
2022-09-26T07:38:06.150Z,4.47
2022-09-26T07:40:33.731Z,4.80
2022-09-26T07:43:19.165Z,3.47
2022-09-26T07:46:10.095Z,2.50
2022-09-26T07:48:57.852Z,2.25
2022-09-26T07:51:43.396Z,1.98
2022-09-26T07:54:15.533Z,2.78
2022-09-26T07:56:59.416Z,1.90
2022-09-26T07:59:36.912Z,1.55
2022-09-26T08:02:34.674Z,1.70
2022-09-26T08:05:06.549Z,1.95
2022-09-26T08:07:35.660Z,2.08
2022-09-26T08:10:22.223Z,2.00
2022-09-26T08:13:30.357Z,2.20
2022-09-26T08:16:23.592Z,1.90
2022-09-26T08:18:54.741Z,2.97
2022-09-26T08:21:24.706Z,3.55
2022-09-26T08:23:55.873Z,3.95
2022-09-26T08:26:31.770Z,4.68
2022-09-26T08:29:23.671Z,4.75
2022-09-26T08:31:54.879Z,4.78
2022-09-26T08:34:25.293Z,5.28
2022-09-26T08:37:12.211Z,6.18
2022-09-26T08:40:01.013Z,5.53
2022-09-26T08:43:06.889Z,5.90
2022-09-26T08:46:12.191Z,4.82
2022-09-26T08:48:54.731Z,4.32
2022-09-26T08:51:31.942Z,4.45
2022-09-26T08:54:23.066Z,4.80
2022-09-26T08:56:56.191Z,4.20
2022-09-26T08:59:28.420Z,4.15
2022-09-26T09:02:02.472Z,3.90
2022-09-26T09:04:59.679Z,3.28
2022-09-26T09:07:27.567Z,3.40
2022-09-26T09:10:01.706Z,3.30
2022-09-26T09:12:43.007Z,2.80
2022-09-26T09:16:04.973Z,2.97
2022-09-26T09:19:08.876Z,2.58
2022-09-26T09:22:47.091Z,2.95
2022-09-26T09:25:48.525Z,2.70
2022-09-26T09:28:37.584Z,2.60
2022-09-26T09:31:11.597Z,2.10
2022-09-26T09:34:04.186Z,1.92
2022-09-26T09:36:38.992Z,2.15
2022-09-26T09:39:42.756Z,1.90
2022-09-26T09:42:26.233Z,2.00
2022-09-26T09:45:02.689Z,2.00
2022-09-26T09:47:38.062Z,2.25
2022-09-26T09:50:30.691Z,1.73
2022-09-26T09:53:22.355Z,1.60
2022-09-26T09:56:26.085Z,1.80
2022-09-26T09:59:06.403Z,2.00
2022-09-26T10:01:51.135Z,1.50
2022-09-26T10:04:43.113Z,1.30
2022-09-26T10:07:11.295Z,1.35
2022-09-26T10:09:43.948Z,1.20
2022-09-26T10:12:31.276Z,1.60
2022-09-26T10:15:20.206Z,1.58
2022-09-26T10:18:25.232Z,1.20
2022-09-26T10:21:12.948Z,1.40
2022-09-26T10:23:45.859Z,1.10
2022-09-26T10:26:31.182Z,1.25
2022-09-26T10:29:00.769Z,1.20
2022-09-26T10:31:42.356Z,1.17
2022-09-26T10:34:28.299Z,1.00
2022-09-26T10:36:56.282Z,1.20
2022-09-26T10:39:47.670Z,0.90
2022-09-26T10:42:23.132Z,1.20
2022-09-26T10:44:58.494Z,1.05
2022-09-26T10:47:51.947Z,1.00
2022-09-26T10:50:25.182Z,1.10
2022-09-26T10:53:13.377Z,1.10
2022-09-26T10:55:59.386Z,1.38
2022-09-26T11:01:03.616Z,1.20
2022-09-26T11:03:41.813Z,1.10
2022-09-26T11:06:35.861Z,1.02
2022-09-26T11:09:23.387Z,1.40
2022-09-26T11:15:06.589Z,1.00
2022-09-26T11:17:49.131Z,1.10
2022-09-26T11:20:48.745Z,1.15
2022-09-26T11:23:41.557Z,0.85
2022-09-26T11:26:19.319Z,0.95
2022-09-26T11:29:04.241Z,0.70
2022-09-26T11:31:44.443Z,0.80
2022-09-26T11:34:44.832Z,1.10
2022-09-26T11:37:34.672Z,0.80
2022-09-26T11:40:49.026Z,0.77
2022-09-26T11:43:45.507Z,0.85
2022-09-26T11:46:29.859Z,1.00
2022-09-26T11:49:41.388Z,0.75
2022-09-26T11:52:31.818Z,0.77
2022-09-26T11:55:22.028Z,0.80
2022-09-26T11:58:16.858Z,0.73
2022-09-26T12:01:16.678Z,0.90
2022-09-26T12:03:59.262Z,1.00
2022-09-26T12:06:35.231Z,0.70
2022-09-26T12:09:47.784Z,0.80
2022-09-26T12:12:26.919Z,0.70
2022-09-26T12:15:23.909Z,0.80
2022-09-26T12:18:13.500Z,1.33
2022-09-26T12:21:19.963Z,0.80
2022-09-26T12:24:00.651Z,1.00
2022-09-26T12:26:30.531Z,0.70
2022-09-26T12:29:10.067Z,1.00
2022-09-26T12:31:59.892Z,0.93
2022-09-26T12:35:05.088Z,0.68
2022-09-26T12:37:41.510Z,0.63
2022-09-26T12:40:17.847Z,0.73
2022-09-26T12:43:16.240Z,0.85
2022-09-26T12:45:52.982Z,0.80
2022-09-26T12:48:35.561Z,0.90
2022-09-26T12:51:16.466Z,0.90
2022-09-26T12:54:05.787Z,0.68
2022-09-26T12:57:00.326Z,0.70
2022-09-26T12:59:38.349Z,0.90
2022-09-26T13:02:26.174Z,0.90
2022-09-26T13:05:19.647Z,0.80
2022-09-26T13:07:47.354Z,0.85
2022-09-26T13:10:58.744Z,0.85
2022-09-26T13:13:46.079Z,0.82
2022-09-26T13:16:32.015Z,0.90
2022-09-26T13:22:00.380Z,0.65
2022-09-26T13:24:42.955Z,0.70
2022-09-26T13:27:42.254Z,0.60
2022-09-26T13:30:18.139Z,0.77
2022-09-26T13:33:03.375Z,0.75
2022-09-26T13:35:37.104Z,0.80
2022-09-26T13:38:49.035Z,0.70
2022-09-26T13:41:22.762Z,0.60
2022-09-26T13:44:12.606Z,0.70
2022-09-26T13:47:13.416Z,0.73
2022-09-26T13:50:00.479Z,0.50
2022-09-26T13:52:52.403Z,0.77
2022-09-26T13:55:22.127Z,0.73
2022-09-26T13:58:04.270Z,0.57
2022-09-26T14:00:31.627Z,0.70
2022-09-26T14:03:15.717Z,0.68
2022-09-26T14:05:46.736Z,0.60
2022-09-26T14:08:52.409Z,0.73
2022-09-26T14:11:19.489Z,0.65
2022-09-26T14:13:47.669Z,0.70
2022-09-26T14:16:35.399Z,0.80
2022-09-26T14:19:20.410Z,0.73
2022-09-26T14:22:05.862Z,1.10
2022-09-26T14:24:41.641Z,0.95
2022-09-26T14:27:12.636Z,1.27
2022-09-26T14:29:42.512Z,1.40
2022-09-26T14:32:12.465Z,0.98
2022-09-26T14:35:16.270Z,0.90
2022-09-26T14:37:46.185Z,1.10
2022-09-26T14:40:27.692Z,2.75
2022-09-26T14:43:13.343Z,2.40
2022-09-26T14:45:40.726Z,1.27
2022-09-26T14:48:14.263Z,0.77
2022-09-26T14:50:56.842Z,0.60
2022-09-26T14:53:38.548Z,1.90
2022-09-26T14:56:37.805Z,1.13
2022-09-26T14:59:14.426Z,1.90
2022-09-26T15:01:42.946Z,0.90
2022-09-26T15:04:13.983Z,1.10
2022-09-26T15:06:47.981Z,1.10
2022-09-26T15:09:31.924Z,0.85
2022-09-26T15:12:03.989Z,0.90
2022-09-26T15:14:45.439Z,0.82
2022-09-26T15:17:20.568Z,0.93
2022-09-26T15:19:55.314Z,0.95
2022-09-26T15:22:25.123Z,1.30
2022-09-26T15:25:17.172Z,1.00
2022-09-26T15:27:46.479Z,0.70
2022-09-26T15:30:18.775Z,0.70
2022-09-26T15:32:50.107Z,1.00
2022-09-26T15:35:17.727Z,0.82
2022-09-26T15:37:46.003Z,1.00
2022-09-26T15:40:25.153Z,1.00
2022-09-26T15:43:11.532Z,1.10
2022-09-26T15:45:50.704Z,0.90
2022-09-26T15:48:21.017Z,1.00
2022-09-26T15:51:12.624Z,0.93
2022-09-26T15:53:47.604Z,0.98
2022-09-26T15:56:27.921Z,1.27
2022-09-26T15:58:55.061Z,2.50
2022-09-26T16:01:27.150Z,2.53
2022-09-26T16:04:00.650Z,2.83
2022-09-26T16:06:29.564Z,1.60
2022-09-26T16:09:21.916Z,1.92
2022-09-26T16:11:58.256Z,1.45
2022-09-26T16:14:31.652Z,1.73
2022-09-26T16:17:23.591Z,1.38
2022-09-26T16:20:02.885Z,1.30
2022-09-26T16:23:13.045Z,1.40
2022-09-26T16:25:49.635Z,1.35
2022-09-26T16:28:17.856Z,1.40
2022-09-26T16:30:53.085Z,1.40
2022-09-26T16:33:31.926Z,1.13
2022-09-26T16:36:15.190Z,1.13
2022-09-26T16:38:42.499Z,2.88
2022-09-26T16:42:01.907Z,6.03
2022-09-26T16:44:34.570Z,7.50
2022-09-26T16:47:05.902Z,13.20
2022-09-26T16:49:40.006Z,17.90
2022-09-26T16:52:31.341Z,13.60
2022-09-26T16:55:01.650Z,9.50
2022-09-26T16:57:33.373Z,6.68
2022-09-26T17:00:32.974Z,3.95
2022-09-26T17:03:00.218Z,3.15
2022-09-26T17:05:27.158Z,3.22
2022-09-26T17:07:54.205Z,1.70
2022-09-26T17:10:25.331Z,1.60
2022-09-26T17:12:53.348Z,1.27
2022-09-26T17:15:28.434Z,1.10
2022-09-26T17:17:57.063Z,2.55
2022-09-26T17:20:24.908Z,2.05
2022-09-26T17:22:53.649Z,2.10
2022-09-26T17:25:25.014Z,2.13
2022-09-26T17:27:57.777Z,2.15
2022-09-26T17:30:25.063Z,1.77
2022-09-26T17:32:53.503Z,1.80
2022-09-26T17:35:33.990Z,1.33
2022-09-26T17:38:01.728Z,2.38
2022-09-26T17:40:31.022Z,1.77
2022-09-26T17:43:01.827Z,2.70
2022-09-26T17:45:40.906Z,1.95
2022-09-26T17:48:14.035Z,1.63
2022-09-26T17:50:42.964Z,1.85
2022-09-26T17:53:20.530Z,1.60
2022-09-26T17:55:48.600Z,1.90
2022-09-26T17:58:16.202Z,2.10
2022-09-26T18:00:44.066Z,2.28
2022-09-26T18:03:24.737Z,2.30
2022-09-26T18:05:53.295Z,3.67
2022-09-26T18:08:28.634Z,4.70
2022-09-26T18:10:59.006Z,4.47
2022-09-26T18:13:31.630Z,5.10
2022-09-26T18:15:58.912Z,4.38
2022-09-26T18:18:30.479Z,5.18
2022-09-26T18:21:03.684Z,5.93
2022-09-26T18:23:51.827Z,5.63
2022-09-26T18:26:35.137Z,5.53
2022-09-26T18:29:08.239Z,4.22
2022-09-26T18:31:39.660Z,4.18
2022-09-26T18:34:13.772Z,4.25
2022-09-26T18:36:40.926Z,5.75
2022-09-26T18:39:08.029Z,7.03
2022-09-26T18:41:35.353Z,7.22
2022-09-26T18:44:03.276Z,6.32
2022-09-26T18:46:30.618Z,6.47
2022-09-26T18:48:59.829Z,6.75
2022-09-26T18:51:27.874Z,5.68
2022-09-26T18:53:55.086Z,5.40
2022-09-26T18:56:40.663Z,4.85
2022-09-26T18:59:10.624Z,3.97
2022-09-26T19:01:42.818Z,3.47
2022-09-26T19:04:19.902Z,3.78
2022-09-26T19:06:50.381Z,3.35
2022-09-26T19:09:21.024Z,3.70
2022-09-26T19:11:48.424Z,3.28
2022-09-26T19:14:19.828Z,3.28
2022-09-26T19:16:48.948Z,6.90
2022-09-26T19:19:17.237Z,13.18
2022-09-26T19:21:52.764Z,16.13
2022-09-26T19:24:36.957Z,12.88
2022-09-26T19:27:11.576Z,6.82
2022-09-26T19:29:43.667Z,4.30
2022-09-26T19:32:37.960Z,2.80
2022-09-26T19:35:32.964Z,2.70
2022-09-26T19:38:02.166Z,4.07
2022-09-26T19:40:29.547Z,4.47
2022-09-26T19:42:57.386Z,4.30
2022-09-26T19:45:26.174Z,4.00
2022-09-26T19:47:54.678Z,3.10
2022-09-26T19:50:25.067Z,2.90
2022-09-26T19:52:53.969Z,2.92
2022-09-26T19:55:28.951Z,2.50
2022-09-26T19:58:34.719Z,2.42
2022-09-26T20:01:14.261Z,2.30
2022-09-26T20:03:42.809Z,2.58
2022-09-26T20:06:21.581Z,2.00
2022-09-26T20:08:50.153Z,2.60
2022-09-26T20:11:17.823Z,2.40
2022-09-26T20:14:04.411Z,1.92
2022-09-26T20:16:34.549Z,1.80
2022-09-26T20:19:05.983Z,2.38
2022-09-26T20:21:34.050Z,2.50
2022-09-26T20:24:01.306Z,2.53
2022-09-26T20:26:30.673Z,2.45
2022-09-26T20:28:57.781Z,2.22
2022-09-26T20:31:27.439Z,2.20
2022-09-26T20:33:59.289Z,2.00
2022-09-26T20:36:32.625Z,1.95
2022-09-26T20:39:04.182Z,2.00
2022-09-26T20:41:40.286Z,2.08
2022-09-26T20:44:29.714Z,2.20
2022-09-26T20:47:01.601Z,2.03
2022-09-26T20:49:32.854Z,1.90
2022-09-26T20:52:00.500Z,1.55
2022-09-26T20:54:32.662Z,1.63
2022-09-26T20:57:01.338Z,1.70
2022-09-26T20:59:29.287Z,1.80
2022-09-26T21:01:58.699Z,1.48
2022-09-26T21:04:35.007Z,1.70
2022-09-26T21:07:02.077Z,1.63
2022-09-26T21:09:29.142Z,1.70
2022-09-26T21:11:56.032Z,2.17
2022-09-26T21:14:23.086Z,1.77
2022-09-26T21:16:52.136Z,1.88
2022-09-26T21:19:23.960Z,1.80
2022-09-26T21:22:02.446Z,1.42
2022-09-26T21:24:42.926Z,1.40
2022-09-26T21:27:15.216Z,1.60
2022-09-26T21:29:43.624Z,1.70
2022-09-26T21:32:19.323Z,1.65
2022-09-26T21:37:24.372Z,1.35
2022-09-26T21:39:51.424Z,1.27
2022-09-26T21:42:18.588Z,1.60
2022-09-26T21:44:52.402Z,1.10
2022-09-26T21:47:19.528Z,1.15
2022-09-26T21:49:46.808Z,1.48
2022-09-26T21:52:20.285Z,1.15
2022-09-26T21:54:47.632Z,1.30
2022-09-26T21:57:27.111Z,1.23
2022-09-26T21:59:55.644Z,1.55
2022-09-26T22:02:22.699Z,1.42
2022-09-26T22:04:49.747Z,1.30
2022-09-26T22:07:16.765Z,1.30
2022-09-26T22:09:44.310Z,1.30
2022-09-26T22:12:11.180Z,1.15
2022-09-26T22:14:38.223Z,1.38
2022-09-26T22:17:05.222Z,1.20
2022-09-26T22:19:33.633Z,1.63
2022-09-26T22:22:01.634Z,1.50
2022-09-26T22:24:29.163Z,1.30
2022-09-26T22:26:56.160Z,0.90
2022-09-26T22:29:23.151Z,1.45
2022-09-26T22:31:50.787Z,1.20
2022-09-26T22:34:17.762Z,1.27
2022-09-26T22:36:44.785Z,1.45
2022-09-26T22:39:11.742Z,1.30
2022-09-26T22:41:38.725Z,1.20
2022-09-26T22:44:05.711Z,1.10
2022-09-26T22:46:34.503Z,1.30
2022-09-26T22:49:02.187Z,1.10
2022-09-26T22:51:29.369Z,1.30
2022-09-26T22:53:56.517Z,1.20
2022-09-26T22:56:24.043Z,1.17
2022-09-26T22:58:52.486Z,1.30
2022-09-26T23:01:23.245Z,1.20
2022-09-26T23:03:54.567Z,1.23
2022-09-26T23:06:22.749Z,1.40
2022-09-26T23:08:50.746Z,1.20
2022-09-26T23:11:19.095Z,1.20
2022-09-26T23:13:47.315Z,1.20
2022-09-26T23:16:17.352Z,1.25
2022-09-26T23:18:45.003Z,1.30
2022-09-26T23:21:23.977Z,1.27
2022-09-26T23:23:55.109Z,1.30
2022-09-26T23:26:32.080Z,1.45
2022-09-26T23:29:01.012Z,1.17
2022-09-26T23:31:29.295Z,1.58
2022-09-26T23:33:57.621Z,1.40
2022-09-26T23:36:25.496Z,1.13
2022-09-26T23:38:52.895Z,1.15
2022-09-26T23:41:20.047Z,1.23
2022-09-26T23:43:47.247Z,1.00
2022-09-26T23:46:14.611Z,1.58
2022-09-26T23:48:42.758Z,1.40
2022-09-26T23:51:10.059Z,1.35
2022-09-26T23:53:37.152Z,1.42
2022-09-26T23:56:10.345Z,1.00
2022-09-26T23:58:37.986Z,1.30
